createdAt,value
2023-05-24T00:00:55.776Z,63.20
2023-05-24T00:01:58.121Z,63.30
2023-05-24T00:03:00.507Z,63.20
2023-05-24T00:04:03.496Z,63.20
2023-05-24T00:05:08.110Z,63.20
2023-05-24T00:06:11.180Z,63.20
2023-05-24T00:07:13.741Z,63.20
2023-05-24T00:08:16.482Z,63.20
2023-05-24T00:09:18.736Z,63.10
2023-05-24T00:10:21.002Z,63.20
2023-05-24T00:11:23.301Z,63.10
2023-05-24T00:12:25.821Z,63.20
2023-05-24T00:13:28.095Z,63.10
2023-05-24T00:14:30.428Z,63.10
2023-05-24T00:15:32.726Z,63.10
2023-05-24T00:16:36.492Z,63.10
2023-05-24T00:17:42.781Z,63.00
2023-05-24T00:18:47.160Z,63.00
2023-05-24T00:19:49.535Z,63.10
2023-05-24T00:20:52.168Z,63.10
2023-05-24T00:21:55.509Z,63.00
2023-05-24T00:22:57.766Z,63.00
2023-05-24T00:24:00.321Z,63.00
2023-05-24T00:25:02.677Z,63.00
2023-05-24T00:26:05.365Z,62.90
2023-05-24T00:27:08.119Z,63.00
2023-05-24T00:28:10.401Z,63.10
2023-05-24T00:29:12.756Z,62.90
2023-05-24T00:30:15.053Z,62.90
2023-05-24T00:31:18.216Z,62.90
2023-05-24T00:32:20.514Z,62.90
2023-05-24T00:33:23.466Z,63.40
2023-05-24T00:34:25.843Z,62.80
2023-05-24T00:35:28.086Z,62.90
2023-05-24T00:36:31.168Z,62.80
2023-05-24T00:37:33.434Z,62.80
2023-05-24T00:38:35.759Z,62.80
2023-05-24T00:39:37.995Z,62.80
2023-05-24T00:40:40.290Z,62.70
2023-05-24T00:41:42.676Z,62.80
2023-05-24T00:42:45.144Z,62.70
2023-05-24T00:43:47.377Z,62.70
2023-05-24T00:44:49.710Z,62.80
2023-05-24T00:46:07.070Z,62.70
2023-05-24T00:47:09.337Z,62.70
2023-05-24T00:48:11.829Z,62.70
2023-05-24T00:49:14.127Z,62.70
2023-05-24T00:50:17.342Z,62.60
2023-05-24T00:51:19.918Z,62.70
2023-05-24T00:52:22.534Z,62.60
2023-05-24T00:53:27.852Z,62.60
2023-05-24T00:54:30.672Z,62.50
2023-05-24T00:55:34.551Z,62.50
2023-05-24T00:56:36.858Z,63.10
2023-05-24T00:57:39.146Z,62.50
2023-05-24T00:58:41.898Z,62.50
2023-05-24T00:59:44.686Z,62.50
2023-05-24T01:00:49.836Z,62.50
2023-05-24T01:01:52.372Z,62.50
2023-05-24T01:02:57.145Z,62.50
2023-05-24T01:03:59.860Z,62.50
2023-05-24T01:05:04.139Z,62.50
2023-05-24T01:06:07.370Z,62.40
2023-05-24T01:07:26.895Z,62.40
2023-05-24T01:08:32.073Z,62.40
2023-05-24T01:09:55.180Z,62.40
2023-05-24T01:11:04.546Z,62.30
2023-05-24T01:12:20.632Z,62.30
2023-05-24T01:13:22.846Z,62.30
2023-05-24T01:14:43.283Z,62.40
2023-05-24T01:16:03.771Z,62.30
2023-05-24T01:17:24.065Z,62.30
2023-05-24T01:18:31.795Z,62.30
2023-05-24T01:19:48.847Z,62.20
2023-05-24T01:20:54.517Z,62.30
2023-05-24T01:22:03.477Z,62.20
2023-05-24T01:23:08.025Z,62.20
2023-05-24T01:24:28.829Z,62.10
2023-05-24T01:25:51.747Z,62.10
2023-05-24T01:26:54.041Z,62.10
2023-05-24T01:27:57.233Z,62.10
2023-05-24T01:29:00.113Z,62.10
2023-05-24T01:30:02.836Z,62.10
2023-05-24T01:31:06.342Z,62.10
2023-05-24T01:32:08.736Z,62.10
2023-05-24T01:33:11.006Z,62.10
2023-05-24T01:34:16.978Z,62.10
2023-05-24T01:35:19.243Z,62.10
2023-05-24T01:36:21.707Z,62.00
2023-05-24T01:37:23.948Z,62.00
2023-05-24T01:38:26.190Z,62.00
2023-05-24T01:39:29.638Z,62.00
2023-05-24T01:40:32.096Z,62.00
2023-05-24T01:41:36.898Z,62.00
2023-05-24T01:42:39.169Z,61.90
2023-05-24T01:43:43.482Z,61.90
2023-05-24T01:44:54.765Z,61.90
2023-05-24T01:46:02.735Z,61.90
2023-05-24T01:47:12.265Z,61.90
2023-05-24T01:48:19.563Z,61.90
2023-05-24T01:49:24.851Z,61.80
2023-05-24T01:50:36.878Z,61.80
2023-05-24T01:51:41.725Z,62.40
2023-05-24T01:52:46.157Z,61.90
2023-05-24T01:53:49.629Z,61.80
2023-05-24T01:54:52.882Z,61.80
2023-05-24T01:55:56.608Z,61.80
2023-05-24T01:56:59.738Z,61.80
2023-05-24T01:58:02.920Z,61.70
2023-05-24T01:59:06.302Z,61.70
2023-05-24T02:00:09.785Z,61.70
2023-05-24T02:01:15.176Z,61.70
2023-05-24T02:02:17.973Z,61.70
2023-05-24T02:03:21.275Z,61.60
2023-05-24T02:04:24.285Z,61.60
2023-05-24T02:05:26.722Z,61.60
2023-05-24T02:06:28.970Z,61.60
2023-05-24T02:07:31.684Z,61.60
2023-05-24T02:08:33.932Z,61.60
2023-05-24T02:09:36.213Z,61.60
2023-05-24T02:10:39.770Z,61.60
2023-05-24T02:11:42.168Z,61.60
2023-05-24T02:12:44.452Z,61.60
2023-05-24T02:13:46.669Z,61.50
2023-05-24T02:14:50.992Z,61.50
2023-05-24T02:15:53.783Z,61.50
2023-05-24T02:16:59.295Z,61.40
2023-05-24T02:18:01.936Z,61.40
2023-05-24T02:19:05.362Z,61.40
2023-05-24T02:20:07.857Z,61.40
2023-05-24T02:21:10.559Z,61.40
2023-05-24T02:22:13.145Z,61.40
2023-05-24T02:23:15.474Z,61.40
2023-05-24T02:24:18.692Z,61.10
2023-05-24T02:25:21.180Z,61.40
2023-05-24T02:26:23.542Z,61.30
2023-05-24T02:27:26.089Z,61.30
2023-05-24T02:28:30.053Z,61.30
2023-05-24T02:29:32.310Z,61.30
2023-05-24T02:30:34.977Z,61.30
2023-05-24T02:31:37.283Z,61.20
2023-05-24T02:32:39.678Z,61.20
2023-05-24T02:33:42.013Z,61.20
2023-05-24T02:34:44.360Z,61.80
2023-05-24T02:35:46.614Z,61.20
2023-05-24T02:36:49.246Z,61.20
2023-05-24T02:37:51.522Z,61.20
2023-05-24T02:38:53.793Z,61.10
2023-05-24T02:39:56.049Z,61.10
2023-05-24T02:40:58.274Z,61.10
2023-05-24T02:42:00.614Z,61.10
2023-05-24T02:43:02.874Z,61.10
2023-05-24T02:44:05.215Z,61.10
2023-05-24T02:45:07.755Z,61.00
2023-05-24T02:46:10.149Z,61.10
2023-05-24T02:47:12.453Z,61.00
2023-05-24T02:48:15.529Z,61.00
2023-05-24T02:49:17.827Z,61.00
2023-05-24T02:50:20.075Z,61.00
2023-05-24T02:51:22.312Z,61.00
2023-05-24T02:52:25.170Z,61.10
2023-05-24T02:53:27.557Z,61.00
2023-05-24T02:54:29.953Z,61.00
2023-05-24T02:55:32.488Z,61.00
2023-05-24T02:56:35.336Z,61.00
2023-05-24T02:57:38.393Z,61.00
2023-05-24T02:58:41.173Z,61.00
2023-05-24T02:59:43.921Z,60.90
2023-05-24T03:00:47.042Z,60.90
2023-05-24T03:01:49.718Z,60.90
2023-05-24T03:02:52.500Z,61.50
2023-05-24T03:03:55.000Z,60.90
2023-05-24T03:04:57.342Z,60.90
2023-05-24T03:05:59.611Z,60.80
2023-05-24T03:07:03.273Z,60.80
2023-05-24T03:08:06.449Z,60.90
2023-05-24T03:09:09.226Z,60.80
2023-05-24T03:10:12.622Z,60.80
2023-05-24T03:11:17.090Z,60.70
2023-05-24T03:12:19.329Z,60.80
2023-05-24T03:13:21.625Z,60.70
2023-05-24T03:14:25.046Z,60.70
2023-05-24T03:15:27.405Z,60.70
2023-05-24T03:16:29.726Z,60.70
2023-05-24T03:17:32.092Z,60.70
2023-05-24T03:18:34.462Z,60.70
2023-05-24T03:19:37.494Z,60.70
2023-05-24T03:20:40.044Z,60.60
2023-05-24T03:21:43.072Z,60.70
2023-05-24T03:22:45.478Z,60.60
2023-05-24T03:23:47.802Z,60.60
2023-05-24T03:24:50.053Z,60.60
2023-05-24T03:25:53.498Z,60.60
2023-05-24T03:26:57.682Z,60.60
2023-05-24T03:27:59.990Z,60.50
2023-05-24T03:29:02.309Z,60.60
2023-05-24T03:30:11.380Z,60.50
2023-05-24T03:31:24.262Z,60.50
2023-05-24T03:32:26.860Z,60.50
2023-05-24T03:33:29.250Z,60.50
2023-05-24T03:34:32.021Z,60.40
2023-05-24T03:35:34.297Z,60.50
2023-05-24T03:36:36.701Z,60.40
2023-05-24T03:37:39.473Z,60.40
2023-05-24T03:38:41.769Z,60.40
2023-05-24T03:39:44.081Z,60.40
2023-05-24T03:41:25.035Z,60.90
2023-05-24T03:42:27.381Z,60.30
2023-05-24T03:43:29.603Z,60.30
2023-05-24T03:44:34.698Z,60.30
2023-05-24T03:45:39.601Z,60.30
2023-05-24T03:46:42.260Z,60.30
2023-05-24T03:47:44.857Z,60.30
2023-05-24T03:48:48.060Z,60.10
2023-05-24T03:49:50.469Z,60.20
2023-05-24T03:50:53.541Z,60.20
2023-05-24T03:51:55.842Z,60.20
2023-05-24T03:52:58.114Z,60.10
2023-05-24T03:54:00.354Z,60.20
2023-05-24T03:55:02.678Z,60.20
2023-05-24T03:56:05.022Z,60.20
2023-05-24T03:57:07.362Z,60.10
2023-05-24T03:58:12.677Z,60.20
2023-05-24T03:59:14.992Z,60.10
2023-05-24T04:00:17.380Z,60.10
2023-05-24T04:01:33.197Z,60.60
2023-05-24T04:02:40.107Z,60.10
2023-05-24T04:03:42.608Z,60.10
2023-05-24T04:04:45.719Z,60.10
2023-05-24T04:05:48.988Z,60.60
2023-05-24T04:06:51.363Z,60.00
2023-05-24T04:07:53.715Z,60.00
2023-05-24T04:08:56.746Z,60.00
2023-05-24T04:09:59.803Z,60.00
2023-05-24T04:11:02.160Z,60.00
2023-05-24T04:12:04.451Z,60.00
2023-05-24T04:13:08.384Z,59.90
2023-05-24T04:14:12.124Z,60.00
2023-05-24T04:15:17.308Z,59.90
2023-05-24T04:16:19.795Z,59.90
2023-05-24T04:17:24.880Z,60.00
2023-05-24T04:18:27.496Z,59.90
2023-05-24T04:19:30.579Z,59.90
2023-05-24T04:20:32.895Z,59.80
2023-05-24T04:21:35.194Z,59.80
2023-05-24T04:22:37.436Z,59.90
2023-05-24T04:23:40.408Z,59.90
2023-05-24T04:24:42.713Z,59.80
2023-05-24T04:25:45.364Z,59.80
2023-05-24T04:26:49.214Z,59.80
2023-05-24T04:27:51.500Z,59.80
2023-05-24T04:28:53.959Z,59.80
2023-05-24T04:29:56.290Z,59.70
2023-05-24T04:30:59.315Z,59.80
2023-05-24T04:32:01.592Z,59.80
2023-05-24T04:33:04.196Z,59.80
2023-05-24T04:34:07.886Z,59.80
2023-05-24T04:35:10.752Z,59.70
2023-05-24T04:36:13.554Z,59.70
2023-05-24T04:37:17.252Z,59.70
2023-05-24T04:38:22.052Z,59.70
2023-05-24T04:39:24.385Z,59.70
2023-05-24T04:40:26.625Z,59.70
2023-05-24T04:41:31.936Z,59.60
2023-05-24T04:42:34.803Z,59.60
2023-05-24T04:43:37.104Z,59.70
2023-05-24T04:44:42.775Z,59.70
2023-05-24T04:45:45.189Z,59.60
2023-05-24T04:46:47.722Z,59.60
2023-05-24T04:47:50.077Z,59.60
2023-05-24T04:48:52.416Z,59.50
2023-05-24T04:49:54.788Z,59.60
2023-05-24T04:51:01.007Z,59.50
2023-05-24T04:52:03.334Z,59.50
2023-05-24T04:53:05.786Z,59.60
2023-05-24T04:54:11.058Z,59.50
2023-05-24T04:55:13.350Z,59.60
2023-05-24T04:56:16.988Z,59.50
2023-05-24T04:57:19.242Z,59.50
2023-05-24T04:58:21.667Z,59.50
2023-05-24T04:59:24.452Z,59.50
2023-05-24T05:00:26.753Z,59.50
2023-05-24T05:01:29.187Z,59.40
2023-05-24T05:02:32.487Z,59.40
2023-05-24T05:03:34.763Z,59.40
2023-05-24T05:04:37.128Z,59.40
2023-05-24T05:05:39.536Z,59.40
2023-05-24T05:06:44.595Z,59.40
2023-05-24T05:07:47.216Z,59.40
2023-05-24T05:08:49.499Z,59.40
2023-05-24T05:09:52.684Z,59.30
2023-05-24T05:10:54.972Z,59.40
2023-05-24T05:11:57.278Z,59.30
2023-05-24T05:12:59.574Z,59.30
2023-05-24T05:14:01.837Z,59.30
2023-05-24T05:15:04.267Z,59.30
2023-05-24T05:16:06.701Z,59.30
2023-05-24T05:17:09.143Z,59.30
2023-05-24T05:18:11.490Z,59.30
2023-05-24T05:19:13.713Z,59.30
2023-05-24T05:20:16.128Z,59.30
2023-05-24T05:21:18.882Z,59.30
2023-05-24T05:22:21.209Z,59.30
2023-05-24T05:23:23.573Z,59.20
2023-05-24T05:24:25.887Z,59.20
2023-05-24T05:25:28.617Z,59.20
2023-05-24T05:26:30.933Z,59.30
2023-05-24T05:27:33.154Z,59.20
2023-05-24T05:28:35.440Z,59.20
2023-05-24T05:29:37.682Z,59.20
2023-05-24T05:30:40.137Z,59.20
2023-05-24T05:31:42.515Z,59.20
2023-05-24T05:32:44.995Z,59.10
2023-05-24T05:33:47.299Z,59.20
2023-05-24T05:34:49.527Z,59.20
2023-05-24T05:35:53.557Z,59.20
2023-05-24T05:36:57.146Z,59.10
2023-05-24T05:37:59.388Z,59.10
2023-05-24T05:39:01.662Z,59.10
2023-05-24T05:40:04.652Z,59.10
2023-05-24T05:41:07.338Z,59.10
2023-05-24T05:42:09.658Z,59.10
2023-05-24T05:43:11.936Z,59.10
2023-05-24T05:44:14.349Z,59.10
2023-05-24T05:45:17.212Z,59.00
2023-05-24T05:46:21.473Z,59.00
2023-05-24T05:47:23.824Z,59.00
2023-05-24T05:48:26.170Z,59.00
2023-05-24T05:49:28.513Z,59.00
2023-05-24T05:50:30.926Z,59.00
2023-05-24T05:51:33.233Z,59.00
2023-05-24T05:52:35.616Z,59.00
2023-05-24T05:53:37.870Z,59.00
2023-05-24T05:54:40.174Z,58.90
2023-05-24T05:55:42.579Z,58.90
2023-05-24T05:56:46.794Z,58.90
2023-05-24T05:57:49.154Z,58.80
2023-05-24T05:58:51.439Z,58.80
2023-05-24T05:59:53.755Z,58.80
2023-05-24T06:00:56.175Z,58.90
2023-05-24T06:01:58.414Z,58.90
2023-05-24T06:03:00.827Z,58.80
2023-05-24T06:04:03.289Z,58.80
2023-05-24T06:05:05.958Z,58.80
2023-05-24T06:06:08.303Z,58.80
2023-05-24T06:07:10.613Z,58.80
2023-05-24T06:08:12.878Z,58.70
2023-05-24T06:09:18.139Z,58.70
2023-05-24T06:10:20.369Z,58.70
2023-05-24T06:11:23.703Z,58.80
2023-05-24T06:12:28.171Z,58.70
2023-05-24T06:13:31.382Z,59.20
2023-05-24T06:14:34.478Z,58.70
2023-05-24T06:15:37.688Z,58.70
2023-05-24T06:16:43.561Z,58.60
2023-05-24T06:17:47.913Z,58.70
2023-05-24T06:19:04.785Z,58.60
2023-05-24T06:20:15.658Z,58.60
2023-05-24T06:21:18.038Z,58.60
2023-05-24T06:22:21.630Z,58.60
2023-05-24T06:23:23.999Z,58.50
2023-05-24T06:24:28.496Z,58.50
2023-05-24T06:25:30.898Z,58.50
2023-05-24T06:26:33.181Z,58.50
2023-05-24T06:27:35.667Z,58.50
2023-05-24T06:28:38.131Z,58.40
2023-05-24T06:29:40.652Z,58.50
2023-05-24T06:30:43.243Z,58.40
2023-05-24T06:31:47.361Z,58.40
2023-05-24T06:32:49.726Z,58.40
2023-05-24T06:34:02.549Z,58.30
2023-05-24T06:35:06.011Z,58.20
2023-05-24T06:36:08.333Z,58.30
2023-05-24T06:37:10.721Z,58.30
2023-05-24T06:38:12.946Z,58.30
2023-05-24T06:39:15.994Z,58.20
2023-05-24T06:40:18.297Z,58.10
2023-05-24T06:41:21.511Z,58.10
2023-05-24T06:42:23.767Z,58.10
2023-05-24T06:43:26.973Z,58.10
2023-05-24T06:44:34.358Z,58.00
2023-05-24T06:45:37.528Z,58.10
2023-05-24T06:46:39.871Z,58.10
2023-05-24T06:47:42.202Z,58.00
2023-05-24T06:48:44.657Z,58.00
2023-05-24T06:49:48.039Z,57.90
2023-05-24T06:50:50.277Z,58.00
2023-05-24T06:51:52.897Z,58.00
2023-05-24T06:52:55.146Z,57.90
2023-05-24T06:53:57.657Z,57.90
2023-05-24T06:55:00.011Z,57.90
2023-05-24T06:56:02.262Z,57.80
2023-05-24T06:57:05.447Z,57.90
2023-05-24T06:58:07.776Z,57.80
2023-05-24T06:59:10.091Z,57.80
2023-05-24T07:00:12.847Z,57.80
2023-05-24T07:01:15.501Z,57.70
2023-05-24T07:02:18.215Z,57.80
2023-05-24T07:03:20.512Z,57.70
2023-05-24T07:04:25.900Z,57.70
2023-05-24T07:05:28.285Z,57.70
2023-05-24T07:06:30.525Z,57.70
2023-05-24T07:07:33.747Z,57.70
2023-05-24T07:08:36.361Z,57.60
2023-05-24T07:09:39.992Z,57.60
2023-05-24T07:10:42.454Z,57.60
2023-05-24T07:11:44.839Z,57.60
2023-05-24T07:12:47.314Z,57.60
2023-05-24T07:13:49.632Z,57.50
2023-05-24T07:14:51.883Z,57.50
2023-05-24T07:15:54.113Z,57.50
2023-05-24T07:16:59.871Z,57.50
2023-05-24T07:18:02.403Z,57.50
2023-05-24T07:19:05.075Z,57.50
2023-05-24T07:20:10.888Z,57.40
2023-05-24T07:21:13.293Z,57.30
2023-05-24T07:22:15.567Z,57.30
2023-05-24T07:23:17.825Z,57.30
2023-05-24T07:24:22.056Z,57.30
2023-05-24T07:25:24.765Z,57.30
2023-05-24T07:26:27.100Z,57.30
2023-05-24T07:27:29.402Z,57.20
2023-05-24T07:28:32.323Z,57.20
2023-05-24T07:29:34.573Z,57.20
2023-05-24T07:30:39.350Z,57.20
2023-05-24T07:31:41.602Z,57.10
2023-05-24T07:32:44.138Z,57.20
2023-05-24T07:33:46.414Z,57.10
2023-05-24T07:34:48.799Z,57.10
2023-05-24T07:35:52.460Z,57.10
2023-05-24T07:36:54.824Z,57.10
2023-05-24T07:37:57.095Z,57.10
2023-05-24T07:39:00.585Z,57.00
2023-05-24T07:40:02.840Z,57.00
2023-05-24T07:41:06.830Z,57.00
2023-05-24T07:42:09.330Z,56.90
2023-05-24T07:43:11.780Z,56.90
2023-05-24T07:44:15.046Z,56.90
2023-05-24T07:45:17.410Z,56.90
2023-05-24T07:46:19.732Z,56.90
2023-05-24T07:47:22.030Z,56.90
2023-05-24T07:48:24.290Z,56.70
2023-05-24T07:49:27.030Z,56.80
2023-05-24T07:50:29.424Z,56.70
2023-05-24T07:51:32.612Z,56.70
2023-05-24T07:52:35.201Z,56.70
2023-05-24T07:53:37.856Z,56.70
2023-05-24T07:54:40.287Z,56.70
2023-05-24T07:55:42.693Z,56.70
2023-05-24T07:56:45.169Z,56.60
2023-05-24T07:57:47.845Z,56.60
2023-05-24T07:58:51.762Z,56.60
2023-05-24T07:59:54.063Z,56.60
2023-05-24T08:00:56.335Z,56.50
2023-05-24T08:02:04.137Z,56.50
2023-05-24T08:03:06.517Z,56.40
2023-05-24T08:04:10.072Z,56.50
2023-05-24T08:05:12.716Z,56.50
2023-05-24T08:06:14.979Z,56.50
2023-05-24T08:07:17.978Z,56.40
2023-05-24T08:08:20.481Z,56.50
2023-05-24T08:09:22.763Z,56.40
2023-05-24T08:10:25.604Z,56.40
2023-05-24T08:11:27.935Z,56.30
2023-05-24T08:12:33.144Z,56.30
2023-05-24T08:13:35.690Z,56.20
2023-05-24T08:14:37.967Z,56.30
2023-05-24T08:15:40.348Z,56.20
2023-05-24T08:16:42.982Z,56.30
2023-05-24T08:17:45.335Z,56.20
2023-05-24T08:18:47.615Z,56.20
2023-05-24T08:19:49.872Z,56.20
2023-05-24T08:20:52.221Z,56.20
2023-05-24T08:21:56.791Z,56.10
2023-05-24T08:23:02.662Z,56.10
2023-05-24T08:24:06.833Z,56.10
2023-05-24T08:25:11.805Z,56.10
2023-05-24T08:26:14.104Z,56.10
2023-05-24T08:27:16.339Z,56.10
2023-05-24T08:28:18.678Z,56.00
2023-05-24T08:29:20.981Z,56.10
2023-05-24T08:30:23.341Z,56.00
2023-05-24T08:31:26.419Z,56.00
2023-05-24T08:32:29.475Z,56.00
2023-05-24T08:33:32.085Z,56.00
2023-05-24T08:34:36.419Z,55.90
2023-05-24T08:35:38.681Z,56.00
2023-05-24T08:36:43.255Z,56.00
2023-05-24T08:37:46.136Z,55.90
2023-05-24T08:38:48.437Z,56.00
2023-05-24T08:39:50.731Z,55.80
2023-05-24T08:40:53.077Z,55.80
2023-05-24T08:42:08.588Z,55.80
2023-05-24T08:43:12.343Z,55.80
2023-05-24T08:44:14.891Z,55.70
2023-05-24T08:45:18.050Z,55.80
2023-05-24T08:46:20.439Z,56.20
2023-05-24T08:47:22.957Z,55.70
2023-05-24T08:48:25.438Z,55.70
2023-05-24T08:49:32.150Z,55.70
2023-05-24T08:50:35.858Z,55.60
2023-05-24T08:51:39.014Z,55.60
2023-05-24T08:52:42.181Z,55.60
2023-05-24T08:53:48.418Z,55.60
2023-05-24T08:54:51.582Z,55.60
2023-05-24T08:55:55.789Z,55.50
2023-05-24T08:56:58.935Z,55.50
2023-05-24T08:58:01.447Z,55.50
2023-05-24T08:59:03.722Z,55.40
2023-05-24T09:00:07.109Z,55.40
2023-05-24T09:01:10.516Z,55.40
2023-05-24T09:02:14.629Z,55.40
2023-05-24T09:03:17.444Z,55.30
2023-05-24T09:04:21.123Z,55.30
2023-05-24T09:05:25.458Z,55.40
2023-05-24T09:06:27.798Z,55.30
2023-05-24T09:07:32.995Z,55.30
2023-05-24T09:08:37.412Z,55.30
2023-05-24T09:09:44.632Z,55.20
2023-05-24T09:10:54.907Z,55.20
2023-05-24T09:11:59.475Z,55.10
2023-05-24T09:13:02.560Z,55.10
2023-05-24T09:14:04.856Z,55.10
2023-05-24T09:15:07.980Z,55.10
2023-05-24T09:16:10.634Z,55.10
2023-05-24T09:17:16.049Z,55.00
2023-05-24T09:18:18.558Z,55.00
2023-05-24T09:19:21.111Z,55.10
2023-05-24T09:20:23.528Z,55.60
2023-05-24T09:21:26.184Z,55.00
2023-05-24T09:22:30.623Z,55.00
2023-05-24T09:23:33.705Z,54.90
2023-05-24T09:24:42.610Z,54.90
2023-05-24T09:25:46.124Z,54.90
2023-05-24T09:26:49.262Z,55.00
2023-05-24T09:27:52.361Z,55.00
2023-05-24T09:28:54.890Z,54.90
2023-05-24T09:29:57.249Z,54.90
2023-05-24T09:31:00.322Z,54.90
2023-05-24T09:32:04.698Z,54.90
2023-05-24T09:33:08.396Z,54.90
2023-05-24T09:34:14.747Z,54.80
2023-05-24T09:35:17.035Z,54.80
2023-05-24T09:36:19.347Z,54.80
2023-05-24T09:37:26.898Z,54.80
2023-05-24T09:38:31.328Z,54.70
2023-05-24T09:39:33.657Z,54.80
2023-05-24T09:40:35.899Z,54.70
2023-05-24T09:41:38.497Z,54.80
2023-05-24T09:42:40.857Z,54.60
2023-05-24T09:43:49.846Z,54.70
2023-05-24T09:45:02.121Z,54.70
2023-05-24T09:46:04.856Z,54.70
2023-05-24T09:47:07.359Z,54.60
2023-05-24T09:48:13.611Z,54.60
2023-05-24T09:49:16.744Z,54.60
2023-05-24T09:50:19.000Z,54.60
2023-05-24T09:51:21.704Z,54.60
2023-05-24T09:52:24.160Z,54.60
2023-05-24T09:53:26.786Z,54.50
2023-05-24T09:54:29.203Z,54.50
2023-05-24T09:55:35.805Z,54.50
2023-05-24T09:56:39.796Z,54.50
2023-05-24T09:57:43.748Z,54.40
2023-05-24T09:58:46.010Z,54.30
2023-05-24T09:59:49.301Z,54.40
2023-05-24T10:01:03.274Z,54.30
2023-05-24T10:02:12.479Z,54.30
2023-05-24T10:03:15.347Z,54.30
2023-05-24T10:04:17.887Z,54.30
2023-05-24T10:05:20.309Z,54.20
2023-05-24T10:06:23.983Z,54.20
2023-05-24T10:07:26.303Z,54.20
2023-05-24T10:08:28.800Z,54.20
2023-05-24T10:09:34.107Z,54.20
2023-05-24T10:10:36.400Z,54.20
2023-05-24T10:11:39.131Z,54.10
2023-05-24T10:12:44.126Z,54.10
2023-05-24T10:13:47.761Z,54.20
2023-05-24T10:14:51.102Z,54.10
2023-05-24T10:15:53.321Z,54.20
2023-05-24T10:16:55.817Z,54.20
2023-05-24T10:17:58.790Z,54.20
2023-05-24T10:19:01.175Z,54.70
2023-05-24T10:20:05.326Z,54.10
2023-05-24T10:21:10.724Z,54.10
2023-05-24T10:22:14.149Z,54.70
2023-05-24T10:23:20.507Z,54.00
2023-05-24T10:24:24.577Z,54.00
2023-05-24T10:25:28.522Z,54.00
2023-05-24T10:26:32.789Z,54.00
2023-05-24T10:27:35.861Z,54.00
2023-05-24T10:28:54.778Z,54.00
2023-05-24T10:30:14.650Z,54.00
2023-05-24T10:31:31.451Z,54.00
2023-05-24T10:32:35.163Z,54.00
2023-05-24T10:33:38.108Z,54.00
2023-05-24T10:34:41.300Z,54.00
2023-05-24T10:35:43.987Z,54.00
2023-05-24T10:36:46.723Z,54.00
2023-05-24T10:37:49.418Z,54.00
2023-05-24T10:38:51.991Z,54.00
2023-05-24T10:39:54.306Z,53.90
2023-05-24T10:40:56.698Z,53.90
2023-05-24T10:42:02.929Z,54.00
2023-05-24T10:43:06.930Z,53.90
2023-05-24T10:44:14.385Z,53.90
2023-05-24T10:45:36.830Z,53.70
2023-05-24T10:46:57.522Z,53.60
2023-05-24T10:48:09.972Z,53.90
2023-05-24T10:49:13.773Z,53.80
2023-05-24T10:50:17.512Z,53.90
2023-05-24T10:51:39.015Z,53.90
2023-05-24T10:52:42.389Z,53.90
2023-05-24T10:53:46.246Z,53.90
2023-05-24T10:55:04.245Z,53.80
2023-05-24T10:56:09.513Z,53.80
2023-05-24T10:57:12.042Z,53.80
2023-05-24T10:58:14.346Z,53.70
2023-05-24T10:59:22.942Z,53.70
2023-05-24T11:01:32.369Z,53.60
2023-05-24T11:02:35.721Z,53.50
2023-05-24T11:03:40.804Z,53.50
2023-05-24T11:04:46.205Z,53.50
2023-05-24T11:05:50.115Z,53.40
2023-05-24T11:06:55.943Z,53.40
2023-05-24T11:08:01.499Z,53.30
2023-05-24T11:09:06.113Z,53.30
2023-05-24T11:10:15.289Z,53.30
2023-05-24T11:11:28.591Z,53.40
2023-05-24T11:12:38.645Z,53.30
2023-05-24T11:13:41.411Z,53.40
2023-05-24T11:14:50.200Z,53.40
2023-05-24T11:15:52.633Z,53.40
2023-05-24T11:16:55.277Z,53.50
2023-05-24T11:18:06.696Z,53.30
2023-05-24T11:19:15.055Z,53.20
2023-05-24T11:20:17.447Z,53.10
2023-05-24T11:21:19.793Z,53.10
2023-05-24T11:22:23.178Z,53.00
2023-05-24T11:23:25.475Z,53.00
2023-05-24T11:24:29.066Z,52.90
2023-05-24T11:25:32.683Z,52.90
2023-05-24T11:26:35.009Z,52.80
2023-05-24T11:27:42.649Z,52.80
2023-05-24T11:28:46.256Z,52.70
2023-05-24T11:29:48.729Z,52.60
2023-05-24T11:30:50.939Z,52.60
2023-05-24T11:31:54.623Z,52.60
2023-05-24T11:32:57.165Z,52.60
2023-05-24T11:34:02.865Z,52.50
2023-05-24T11:35:08.813Z,52.50
2023-05-24T11:36:11.079Z,52.50
2023-05-24T11:37:16.091Z,52.50
2023-05-24T11:38:23.514Z,52.40
2023-05-24T11:39:34.318Z,52.40
2023-05-24T11:40:39.029Z,52.40
2023-05-24T11:41:41.367Z,52.40
2023-05-24T11:42:44.433Z,52.30
2023-05-24T11:43:46.951Z,52.30
2023-05-24T11:44:49.862Z,52.20
2023-05-24T11:45:52.874Z,52.20
2023-05-24T11:46:59.397Z,52.20
2023-05-24T11:48:04.561Z,52.20
2023-05-24T11:49:12.087Z,52.20
2023-05-24T11:50:24.388Z,52.20
2023-05-24T11:51:31.222Z,52.20
2023-05-24T11:52:38.118Z,52.10
2023-05-24T11:53:40.445Z,52.20
2023-05-24T11:54:42.733Z,52.10
2023-05-24T11:55:45.315Z,52.10
2023-05-24T11:56:47.682Z,52.00
2023-05-24T11:57:52.975Z,52.00
2023-05-24T11:59:00.294Z,52.00
2023-05-24T12:00:02.613Z,52.00
2023-05-24T12:01:06.907Z,52.00
2023-05-24T12:02:11.141Z,52.00
2023-05-24T12:03:13.585Z,52.00
2023-05-24T12:04:16.013Z,52.00
2023-05-24T12:05:19.182Z,52.00
2023-05-24T12:06:23.144Z,52.00
2023-05-24T12:07:25.442Z,52.00
2023-05-24T12:08:28.264Z,51.90
2023-05-24T12:09:30.676Z,51.90
2023-05-24T12:10:35.067Z,51.90
2023-05-24T12:11:42.133Z,51.80
2023-05-24T12:12:47.586Z,51.90
2023-05-24T12:13:50.049Z,52.00
2023-05-24T12:14:55.183Z,51.90
2023-05-24T12:15:58.218Z,51.90
2023-05-24T12:17:03.624Z,51.80
2023-05-24T12:18:17.475Z,51.90
2023-05-24T12:19:32.441Z,51.90
2023-05-24T12:20:38.145Z,51.90
2023-05-24T12:21:43.263Z,51.80
2023-05-24T12:22:52.699Z,51.80
2023-05-24T12:23:55.043Z,51.80
2023-05-24T12:24:57.906Z,51.80
2023-05-24T12:26:00.952Z,51.80
2023-05-24T12:27:07.442Z,51.80
2023-05-24T12:28:10.200Z,51.80
2023-05-24T12:29:12.577Z,51.80
2023-05-24T12:30:22.778Z,51.70
2023-05-24T12:31:25.031Z,51.80
2023-05-24T12:32:27.400Z,51.70
2023-05-24T12:33:30.397Z,51.70
2023-05-24T12:34:32.891Z,51.70
2023-05-24T12:35:35.177Z,51.60
2023-05-24T12:36:38.226Z,51.70
2023-05-24T12:37:40.484Z,51.70
2023-05-24T12:38:42.796Z,51.60
2023-05-24T12:39:45.675Z,51.70
2023-05-24T12:40:57.038Z,51.60
2023-05-24T12:42:10.841Z,51.60
2023-05-24T12:43:16.384Z,51.70
2023-05-24T12:44:22.798Z,51.70
2023-05-24T12:45:26.667Z,51.70
2023-05-24T12:46:29.013Z,51.70
2023-05-24T12:47:32.612Z,51.70
2023-05-24T12:48:35.258Z,51.60
2023-05-24T12:49:37.686Z,51.40
2023-05-24T12:50:40.299Z,51.40
2023-05-24T12:51:42.673Z,51.40
2023-05-24T12:52:47.379Z,51.40
2023-05-24T12:53:52.155Z,51.40
2023-05-24T12:54:54.378Z,51.30
2023-05-24T12:55:56.777Z,51.30
2023-05-24T12:57:03.488Z,51.30
2023-05-24T12:58:08.000Z,51.30
2023-05-24T12:59:10.363Z,51.30
2023-05-24T13:00:13.157Z,51.30
2023-05-24T13:01:15.564Z,51.30
2023-05-24T13:02:17.889Z,51.30
2023-05-24T13:03:20.103Z,51.30
2023-05-24T13:04:24.398Z,51.20
2023-05-24T13:05:27.774Z,51.20
2023-05-24T13:06:30.204Z,51.20
2023-05-24T13:07:32.466Z,51.10
2023-05-24T13:08:34.692Z,51.10
2023-05-24T13:09:37.067Z,51.00
2023-05-24T13:10:39.518Z,51.00
2023-05-24T13:11:42.342Z,50.90
2023-05-24T13:12:46.160Z,51.00
2023-05-24T13:13:48.516Z,50.80
2023-05-24T13:14:52.777Z,50.80
2023-05-24T13:15:55.273Z,50.80
2023-05-24T13:16:57.836Z,50.80
2023-05-24T13:18:00.191Z,50.90
2023-05-24T13:19:02.522Z,50.90
2023-05-24T13:20:06.944Z,50.90
2023-05-24T13:21:11.451Z,50.90
2023-05-24T13:22:14.653Z,50.90
2023-05-24T13:23:17.544Z,50.80
2023-05-24T13:24:20.363Z,50.80
2023-05-24T13:25:22.862Z,50.90
2023-05-24T13:26:25.163Z,50.70
2023-05-24T13:27:27.922Z,50.70
2023-05-24T13:28:30.644Z,50.60
2023-05-24T13:29:42.396Z,50.60
2023-05-24T13:30:48.788Z,50.50
2023-05-24T13:31:51.381Z,50.50
2023-05-24T13:32:54.549Z,50.40
2023-05-24T13:33:56.943Z,50.30
2023-05-24T13:34:59.306Z,50.30
2023-05-24T13:36:02.310Z,50.40
2023-05-24T13:37:05.806Z,50.30
2023-05-24T13:38:08.963Z,50.40
2023-05-24T13:39:16.057Z,50.40
2023-05-24T13:40:19.259Z,50.30
2023-05-24T13:41:22.176Z,50.20
2023-05-24T13:42:24.435Z,50.20
2023-05-24T13:43:26.725Z,50.20
2023-05-24T13:44:29.496Z,50.10